Quitman, Mississippi
Current Conditions -  °F | °C
As of 4:58 AM on Wednesday 26 Nov 2014 (Local Time) from KMEI Reporting Station
Clear Clear  
Wind Chill: 28°   Ceiling: Unl
Heat Index: 28°   Visibility: 10mi
Dew Point: 26°   Wind: 3mph
Humidity: 92%   Direction: 230°SW
Pressure: 30.19"   Gusts: NA
Location:  32.04°N, 88.73°W
Report Text: KMEI 261058Z AUTO 23003KT 10SM CLR M02/M03 A3019 RMK AO2 SLP224 T10221033
Loading
Personal Weather Stations






























Interactive Weather Map New forecast layout! Learn more

10-Day Weather Forecast

Advertisements
Track Severe Weather on mobile